sensor_id;sensor_type;location;lat;lon;timestamp;temperature;humidity
16907;DHT22;8570;52.380;4.654;2022-11-20T00:21:20;-0.30;99.90
16907;DHT22;8570;52.380;4.654;2022-11-20T00:26:31;-0.50;99.90
16907;DHT22;8570;52.380;4.654;2022-11-20T00:31:34;-0.60;99.90
16907;DHT22;8570;52.380;4.654;2022-11-20T00:36:39;-0.60;99.90
16907;DHT22;8570;52.380;4.654;2022-11-20T00:41:42;-0.60;99.90
16907;DHT22;8570;52.380;4.654;2022-11-20T00:46:43;-0.70;99.90
16907;DHT22;8570;52.380;4.654;2022-11-20T00:51:47;-0.70;99.90
16907;DHT22;8570;52.380;4.654;2022-11-20T00:56:52;-0.70;99.90
16907;DHT22;8570;52.380;4.654;2022-11-20T01:01:57;-0.80;99.90
16907;DHT22;8570;52.380;4.654;2022-11-20T01:07:04;-0.70;99.90
16907;DHT22;8570;52.380;4.654;2022-11-20T01:12:06;-0.80;99.90
16907;DHT22;8570;52.380;4.654;2022-11-20T01:17:08;-0.80;99.90
16907;DHT22;8570;52.380;4.654;2022-11-20T01:22:11;-0.80;99.90
16907;DHT22;8570;52.380;4.654;2022-11-20T01:27:13;-0.90;99.90
16907;DHT22;8570;52.380;4.654;2022-11-20T01:32:15;-0.90;99.90
16907;DHT22;8570;52.380;4.654;2022-11-20T01:37:20;-0.90;99.90
16907;DHT22;8570;52.380;4.654;2022-11-20T01:42:22;-0.80;99.90
16907;DHT22;8570;52.380;4.654;2022-11-20T01:47:44;-1.00;99.90
16907;DHT22;8570;52.380;4.654;2022-11-20T01:52:50;-0.90;99.90
16907;DHT22;8570;52.380;4.654;2022-11-20T01:57:54;-1.00;99.90
16907;DHT22;8570;52.380;4.654;2022-11-20T02:02:58;-1.00;99.90
16907;DHT22;8570;52.380;4.654;2022-11-20T02:08:03;-1.00;99.90
16907;DHT22;8570;52.380;4.654;2022-11-20T02:13:05;-1.00;99.90
16907;DHT22;8570;52.380;4.654;2022-11-20T02:18:25;-1.10;99.90
16907;DHT22;8570;52.380;4.654;2022-11-20T02:23:32;-1.10;99.90
16907;DHT22;8570;52.380;4.654;2022-11-20T02:28:36;-1.10;99.90
16907;DHT22;8570;52.380;4.654;2022-11-20T02:33:39;-1.10;99.90
16907;DHT22;8570;52.380;4.654;2022-11-20T02:38:41;-1.20;99.90
16907;DHT22;8570;52.380;4.654;2022-11-20T03:44:28;-1.20;99.90
16907;DHT22;8570;52.380;4.654;2022-11-20T03:49:30;-1.40;99.90
16907;DHT22;8570;52.380;4.654;2022-11-20T03:54:32;-1.40;99.90
16907;DHT22;8570;52.380;4.654;2022-11-20T04:45:00;-1.40;99.90
16907;DHT22;8570;52.380;4.654;2022-11-20T04:50:02;-1.50;99.90
16907;DHT22;8570;52.380;4.654;2022-11-20T04:55:05;-1.50;99.90
16907;DHT22;8570;52.380;4.654;2022-11-20T05:00:10;-1.50;99.90
16907;DHT22;8570;52.380;4.654;2022-11-20T05:05:14;-1.50;99.90
16907;DHT22;8570;52.380;4.654;2022-11-20T05:10:16;-1.50;99.90
16907;DHT22;8570;52.380;4.654;2022-11-20T05:15:19;-1.50;99.90
16907;DHT22;8570;52.380;4.654;2022-11-20T05:20:21;-1.60;99.90
16907;DHT22;8570;52.380;4.654;2022-11-20T05:25:23;-1.60;99.90
16907;DHT22;8570;52.380;4.654;2022-11-20T05:30:27;-1.60;99.90
16907;DHT22;8570;52.380;4.654;2022-11-20T05:35:36;-1.60;99.90
16907;DHT22;8570;52.380;4.654;2022-11-20T05:40:38;-1.60;99.90
16907;DHT22;8570;52.380;4.654;2022-11-20T05:45:41;-1.60;99.90
16907;DHT22;8570;52.380;4.654;2022-11-20T05:50:43;-1.60;99.90
16907;DHT22;8570;52.380;4.654;2022-11-20T05:55:45;-1.60;99.90
16907;DHT22;8570;52.380;4.654;2022-11-20T06:00:49;-1.60;99.90
16907;DHT22;8570;52.380;4.654;2022-11-20T06:05:54;-1.60;99.90
16907;DHT22;8570;52.380;4.654;2022-11-20T06:10:58;-1.60;99.90
16907;DHT22;8570;52.380;4.654;2022-11-20T06:16:02;-1.60;99.90
16907;DHT22;8570;52.380;4.654;2022-11-20T06:21:07;-1.60;99.90
16907;DHT22;8570;52.380;4.654;2022-11-20T06:26:11;-1.60;99.90
16907;DHT22;8570;52.380;4.654;2022-11-20T06:31:19;-1.60;99.90
16907;DHT22;8570;52.380;4.654;2022-11-20T06:36:22;-1.60;99.90
16907;DHT22;8570;52.380;4.654;2022-11-20T06:41:24;-1.60;99.90
16907;DHT22;8570;52.380;4.654;2022-11-20T06:46:28;-1.60;99.90
16907;DHT22;8570;52.380;4.654;2022-11-20T06:51:30;-1.60;99.90
16907;DHT22;8570;52.380;4.654;2022-11-20T06:56:35;-1.60;99.90
16907;DHT22;8570;52.380;4.654;2022-11-20T07:01:38;-1.50;99.90
16907;DHT22;8570;52.380;4.654;2022-11-20T07:06:40;-1.60;99.90
16907;DHT22;8570;52.380;4.654;2022-11-20T07:11:47;-1.50;99.90
16907;DHT22;8570;52.380;4.654;2022-11-20T07:16:50;-1.50;99.90
16907;DHT22;8570;52.380;4.654;2022-11-20T07:21:52;-1.50;99.90
16907;DHT22;8570;52.380;4.654;2022-11-20T07:32:04;-1.80;99.90
16907;DHT22;8570;52.380;4.654;2022-11-20T07:37:06;-1.40;99.90
16907;DHT22;8570;52.380;4.654;2022-11-20T07:42:14;-1.40;99.90
16907;DHT22;8570;52.380;4.654;2022-11-20T07:47:17;-1.30;99.90
16907;DHT22;8570;52.380;4.654;2022-11-20T07:52:22;-1.30;99.90
16907;DHT22;8570;52.380;4.654;2022-11-20T07:57:27;-1.30;99.90
16907;DHT22;8570;52.380;4.654;2022-11-20T08:02:31;-1.20;99.90
16907;DHT22;8570;52.380;4.654;2022-11-20T08:07:37;-1.20;99.90
16907;DHT22;8570;52.380;4.654;2022-11-20T08:12:47;-1.10;99.90
16907;DHT22;8570;52.380;4.654;2022-11-20T08:18:11;-1.10;99.90
16907;DHT22;8570;52.380;4.654;2022-11-20T08:23:16;-1.10;99.90
16907;DHT22;8570;52.380;4.654;2022-11-20T08:28:19;-1.00;99.90
16907;DHT22;8570;52.380;4.654;2022-11-20T08:33:27;-1.00;99.90
16907;DHT22;8570;52.380;4.654;2022-11-20T08:38:29;-1.00;99.90
16907;DHT22;8570;52.380;4.654;2022-11-20T08:43:31;-0.90;99.90
16907;DHT22;8570;52.380;4.654;2022-11-20T08:48:35;-0.80;99.90
16907;DHT22;8570;52.380;4.654;2022-11-20T08:53:39;-0.70;99.90
16907;DHT22;8570;52.380;4.654;2022-11-20T08:58:42;-0.60;99.90
16907;DHT22;8570;52.380;4.654;2022-11-20T09:03:45;-0.50;99.90
16907;DHT22;8570;52.380;4.654;2022-11-20T09:08:51;-0.50;99.90
16907;DHT22;8570;52.380;4.654;2022-11-20T09:13:53;-0.40;99.90
16907;DHT22;8570;52.380;4.654;2022-11-20T09:18:57;-0.30;99.90
16907;DHT22;8570;52.380;4.654;2022-11-20T09:23:59;-0.30;99.90
16907;DHT22;8570;52.380;4.654;2022-11-20T09:29:03;-0.20;99.90
16907;DHT22;8570;52.380;4.654;2022-11-20T09:34:09;-0.10;99.90
16907;DHT22;8570;52.380;4.654;2022-11-20T09:39:11;0.00;99.90
16907;DHT22;8570;52.380;4.654;2022-11-20T09:44:24;0.10;99.90
16907;DHT22;8570;52.380;4.654;2022-11-20T09:49:39;0.20;99.90
16907;DHT22;8570;52.380;4.654;2022-11-20T09:54:45;0.40;99.90
16907;DHT22;8570;52.380;4.654;2022-11-20T09:59:50;0.50;99.90
16907;DHT22;8570;52.380;4.654;2022-11-20T10:05:00;0.60;99.90
16907;DHT22;8570;52.380;4.654;2022-11-20T10:10:04;0.70;99.90
16907;DHT22;8570;52.380;4.654;2022-11-20T10:15:14;0.80;99.90
16907;DHT22;8570;52.380;4.654;2022-11-20T10:20:28;0.90;99.90
16907;DHT22;8570;52.380;4.654;2022-11-20T10:25:38;0.90;99.90
16907;DHT22;8570;52.380;4.654;2022-11-20T10:30:43;1.00;99.90
16907;DHT22;8570;52.380;4.654;2022-11-20T10:35:52;1.00;99.90
16907;DHT22;8570;52.380;4.654;2022-11-20T10:40:59;1.10;99.90
16907;DHT22;8570;52.380;4.654;2022-11-20T10:46:19;1.20;99.90
16907;DHT22;8570;52.380;4.654;2022-11-20T10:51:35;1.20;99.90
16907;DHT22;8570;52.380;4.654;2022-11-20T10:56:42;1.60;99.90
16907;DHT22;8570;52.380;4.654;2022-11-20T11:01:48;1.70;99.90
16907;DHT22;8570;52.380;4.654;2022-11-20T11:06:54;1.70;99.90
16907;DHT22;8570;52.380;4.654;2022-11-20T11:12:00;1.60;99.90
16907;DHT22;8570;52.380;4.654;2022-11-20T11:17:04;1.60;99.90
16907;DHT22;8570;52.380;4.654;2022-11-20T11:22:12;1.50;99.90
16907;DHT22;8570;52.380;4.654;2022-11-20T11:27:21;1.50;99.90
16907;DHT22;8570;52.380;4.654;2022-11-20T11:32:23;1.60;99.90
16907;DHT22;8570;52.380;4.654;2022-11-20T11:37:33;1.60;99.90
16907;DHT22;8570;52.380;4.654;2022-11-20T11:42:41;1.60;99.90
16907;DHT22;8570;52.380;4.654;2022-11-20T11:47:46;1.70;99.90
16907;DHT22;8570;52.380;4.654;2022-11-20T11:53:02;1.70;99.90
16907;DHT22;8570;52.380;4.654;2022-11-20T11:58:16;1.80;99.90
16907;DHT22;8570;52.380;4.654;2022-11-20T12:09:04;2.10;99.90
16907;DHT22;8570;52.380;4.654;2022-11-20T12:14:14;2.30;99.90
16907;DHT22;8570;52.380;4.654;2022-11-20T12:19:25;2.50;99.90
16907;DHT22;8570;52.380;4.654;2022-11-20T12:24:51;2.50;99.90
16907;DHT22;8570;52.380;4.654;2022-11-20T12:29:58;2.40;99.90
16907;DHT22;8570;52.380;4.654;2022-11-20T12:35:10;2.40;99.90
16907;DHT22;8570;52.380;4.654;2022-11-20T12:40:31;2.40;99.90
16907;DHT22;8570;52.380;4.654;2022-11-20T12:46:03;2.40;99.90
16907;DHT22;8570;52.380;4.654;2022-11-20T12:56:51;2.50;99.90
16907;DHT22;8570;52.380;4.654;2022-11-20T13:02:01;2.50;99.90
16907;DHT22;8570;52.380;4.654;2022-11-20T13:07:11;2.50;99.90
16907;DHT22;8570;52.380;4.654;2022-11-20T13:12:23;2.50;99.90
16907;DHT22;8570;52.380;4.654;2022-11-20T13:17:34;2.50;99.90
16907;DHT22;8570;52.380;4.654;2022-11-20T13:22:44;2.50;99.90
16907;DHT22;8570;52.380;4.654;2022-11-20T13:27:48;2.50;99.90
16907;DHT22;8570;52.380;4.654;2022-11-20T13:32:53;2.50;99.90
16907;DHT22;8570;52.380;4.654;2022-11-20T13:38:07;2.50;99.90
16907;DHT22;8570;52.380;4.654;2022-11-20T13:43:37;2.50;99.90
16907;DHT22;8570;52.380;4.654;2022-11-20T13:48:43;2.50;99.90
16907;DHT22;8570;52.380;4.654;2022-11-20T13:59:28;2.50;99.90
16907;DHT22;8570;52.380;4.654;2022-11-20T14:04:36;2.50;99.90
16907;DHT22;8570;52.380;4.654;2022-11-20T14:09:52;2.60;99.90
16907;DHT22;8570;52.380;4.654;2022-11-20T14:14:56;2.60;99.90
16907;DHT22;8570;52.380;4.654;2022-11-20T14:20:03;2.60;99.90
16907;DHT22;8570;52.380;4.654;2022-11-20T14:25:22;2.60;99.90
16907;DHT22;8570;52.380;4.654;2022-11-20T14:30:46;2.60;99.90
16907;DHT22;8570;52.380;4.654;2022-11-20T14:35:52;2.60;99.90
16907;DHT22;8570;52.380;4.654;2022-11-20T14:41:15;2.70;99.90
16907;DHT22;8570;52.380;4.654;2022-11-20T14:46:24;2.70;99.90
16907;DHT22;8570;52.380;4.654;2022-11-20T14:51:35;2.70;99.90
16907;DHT22;8570;52.380;4.654;2022-11-20T14:56:53;2.70;99.90
16907;DHT22;8570;52.380;4.654;2022-11-20T15:02:11;2.80;99.90
16907;DHT22;8570;52.380;4.654;2022-11-20T15:07:24;2.80;99.90
16907;DHT22;8570;52.380;4.654;2022-11-20T15:12:29;2.80;99.90
16907;DHT22;8570;52.380;4.654;2022-11-20T15:17:43;2.80;99.90
16907;DHT22;8570;52.380;4.654;2022-11-20T15:22:53;2.80;99.90
16907;DHT22;8570;52.380;4.654;2022-11-20T15:28:18;2.80;99.90
16907;DHT22;8570;52.380;4.654;2022-11-20T15:33:33;2.90;99.90
16907;DHT22;8570;52.380;4.654;2022-11-20T15:38:40;2.90;99.90
16907;DHT22;8570;52.380;4.654;2022-11-20T15:43:43;2.90;99.90
16907;DHT22;8570;52.380;4.654;2022-11-20T15:48:54;3.00;99.90
16907;DHT22;8570;52.380;4.654;2022-11-20T15:54:07;3.00;99.90
16907;DHT22;8570;52.380;4.654;2022-11-20T15:59:24;3.00;99.90
16907;DHT22;8570;52.380;4.654;2022-11-20T16:04:48;3.00;99.90
16907;DHT22;8570;52.380;4.654;2022-11-20T16:09:57;3.10;99.90
16907;DHT22;8570;52.380;4.654;2022-11-20T16:15:04;3.10;99.90
16907;DHT22;8570;52.380;4.654;2022-11-20T16:20:25;3.10;99.90
16907;DHT22;8570;52.380;4.654;2022-11-20T16:25:27;3.60;99.90
16907;DHT22;8570;52.380;4.654;2022-11-20T16:30:40;3.70;99.90
16907;DHT22;8570;52.380;4.654;2022-11-20T16:35:46;3.60;99.90
16907;DHT22;8570;52.380;4.654;2022-11-20T16:40:59;3.50;99.90
16907;DHT22;8570;52.380;4.654;2022-11-20T16:46:04;3.40;99.90
16907;DHT22;8570;52.380;4.654;2022-11-20T16:51:20;3.40;99.90
16907;DHT22;8570;52.380;4.654;2022-11-20T16:56:40;3.40;99.90
16907;DHT22;8570;52.380;4.654;2022-11-20T17:01:47;3.40;99.90
16907;DHT22;8570;52.380;4.654;2022-11-20T17:06:59;3.40;99.90
16907;DHT22;8570;52.380;4.654;2022-11-20T17:12:17;3.40;99.90
16907;DHT22;8570;52.380;4.654;2022-11-20T17:17:19;3.40;99.90
16907;DHT22;8570;52.380;4.654;2022-11-20T17:22:24;3.50;99.90
16907;DHT22;8570;52.380;4.654;2022-11-20T17:27:30;3.50;99.90
16907;DHT22;8570;52.380;4.654;2022-11-20T17:32:35;3.50;99.90
16907;DHT22;8570;52.380;4.654;2022-11-20T17:37:49;3.50;99.90
16907;DHT22;8570;52.380;4.654;2022-11-20T17:42:51;3.50;99.90
16907;DHT22;8570;52.380;4.654;2022-11-20T17:47:53;3.50;99.90
16907;DHT22;8570;52.380;4.654;2022-11-20T17:53:06;3.60;99.90
16907;DHT22;8570;52.380;4.654;2022-11-20T17:58:12;3.60;99.90
16907;DHT22;8570;52.380;4.654;2022-11-20T18:03:14;3.60;99.90
16907;DHT22;8570;52.380;4.654;2022-11-20T18:08:19;3.60;99.90
16907;DHT22;8570;52.380;4.654;2022-11-20T18:13:27;3.70;99.90
16907;DHT22;8570;52.380;4.654;2022-11-20T18:18:52;3.70;99.90
16907;DHT22;8570;52.380;4.654;2022-11-20T18:24:01;3.70;99.90
16907;DHT22;8570;52.380;4.654;2022-11-20T18:29:04;3.70;99.90
16907;DHT22;8570;52.380;4.654;2022-11-20T18:34:06;3.80;99.90
16907;DHT22;8570;52.380;4.654;2022-11-20T18:39:15;3.80;99.90
16907;DHT22;8570;52.380;4.654;2022-11-20T18:44:26;3.80;99.90
16907;DHT22;8570;52.380;4.654;2022-11-20T18:49:48;3.80;99.90
16907;DHT22;8570;52.380;4.654;2022-11-20T18:55:05;3.80;99.90
16907;DHT22;8570;52.380;4.654;2022-11-20T19:00:12;3.80;99.90
16907;DHT22;8570;52.380;4.654;2022-11-20T19:05:20;3.80;99.90
16907;DHT22;8570;52.380;4.654;2022-11-20T19:10:32;3.80;99.90
16907;DHT22;8570;52.380;4.654;2022-11-20T19:15:38;3.80;99.90
16907;DHT22;8570;52.380;4.654;2022-11-20T19:20:45;3.80;99.90
16907;DHT22;8570;52.380;4.654;2022-11-20T19:25:59;3.80;99.90
16907;DHT22;8570;52.380;4.654;2022-11-20T19:31:09;3.80;99.90
16907;DHT22;8570;52.380;4.654;2022-11-20T19:36:17;3.80;99.90
16907;DHT22;8570;52.380;4.654;2022-11-20T19:41:24;3.90;99.90
16907;DHT22;8570;52.380;4.654;2022-11-20T19:46:30;4.30;99.90
16907;DHT22;8570;52.380;4.654;2022-11-20T19:51:33;4.70;99.90
16907;DHT22;8570;52.380;4.654;2022-11-20T19:56:37;4.80;99.90
16907;DHT22;8570;52.380;4.654;2022-11-20T20:01:39;4.60;99.90
16907;DHT22;8570;52.380;4.654;2022-11-20T20:06:43;4.70;99.90
16907;DHT22;8570;52.380;4.654;2022-11-20T20:11:48;4.80;99.90
16907;DHT22;8570;52.380;4.654;2022-11-20T20:16:51;5.00;99.90
16907;DHT22;8570;52.380;4.654;2022-11-20T20:21:52;5.20;99.90
16907;DHT22;8570;52.380;4.654;2022-11-20T20:26:56;5.20;99.90
16907;DHT22;8570;52.380;4.654;2022-11-20T20:31:58;5.30;99.90
16907;DHT22;8570;52.380;4.654;2022-11-20T20:37:00;5.20;99.90
16907;DHT22;8570;52.380;4.654;2022-11-20T20:42:04;5.00;99.90
16907;DHT22;8570;52.380;4.654;2022-11-20T20:47:06;4.80;99.90
16907;DHT22;8570;52.380;4.654;2022-11-20T20:52:10;4.70;99.90
16907;DHT22;8570;52.380;4.654;2022-11-20T20:57:16;4.60;99.90
16907;DHT22;8570;52.380;4.654;2022-11-20T21:02:18;4.60;99.90
16907;DHT22;8570;52.380;4.654;2022-11-20T21:07:20;4.50;99.90
16907;DHT22;8570;52.380;4.654;2022-11-20T21:12:24;4.50;99.90
16907;DHT22;8570;52.380;4.654;2022-11-20T21:17:26;4.40;99.90
16907;DHT22;8570;52.380;4.654;2022-11-20T21:22:28;4.40;99.90
16907;DHT22;8570;52.380;4.654;2022-11-20T21:27:33;4.40;99.90
16907;DHT22;8570;52.380;4.654;2022-11-20T21:32:35;4.40;99.90
16907;DHT22;8570;52.380;4.654;2022-11-20T21:37:37;4.40;99.90
16907;DHT22;8570;52.380;4.654;2022-11-20T21:42:40;4.30;99.90
16907;DHT22;8570;52.380;4.654;2022-11-20T21:47:42;4.30;99.90
16907;DHT22;8570;52.380;4.654;2022-11-20T21:52:44;4.30;99.90
16907;DHT22;8570;52.380;4.654;2022-11-20T21:57:48;4.30;99.90
16907;DHT22;8570;52.380;4.654;2022-11-20T22:02:50;4.40;99.90
16907;DHT22;8570;52.380;4.654;2022-11-20T22:07:51;4.40;99.90
16907;DHT22;8570;52.380;4.654;2022-11-20T22:12:55;4.40;99.90
16907;DHT22;8570;52.380;4.654;2022-11-20T22:18:17;4.30;99.90
16907;DHT22;8570;52.380;4.654;2022-11-20T22:23:22;4.30;99.90
16907;DHT22;8570;52.380;4.654;2022-11-20T22:28:25;4.30;99.90
16907;DHT22;8570;52.380;4.654;2022-11-20T22:33:28;4.30;99.90
16907;DHT22;8570;52.380;4.654;2022-11-20T22:38:34;4.30;99.90
16907;DHT22;8570;52.380;4.654;2022-11-20T22:43:44;4.30;99.90
16907;DHT22;8570;52.380;4.654;2022-11-20T22:48:56;4.30;99.90
16907;DHT22;8570;52.380;4.654;2022-11-20T22:53:58;4.30;99.90
16907;DHT22;8570;52.380;4.654;2022-11-20T22:59:01;4.20;99.90
16907;DHT22;8570;52.380;4.654;2022-11-20T23:04:05;4.20;99.90
16907;DHT22;8570;52.380;4.654;2022-11-20T23:09:08;4.20;99.90
16907;DHT22;8570;52.380;4.654;2022-11-20T23:14:16;4.20;99.90
16907;DHT22;8570;52.380;4.654;2022-11-20T23:19:18;4.20;99.90
16907;DHT22;8570;52.380;4.654;2022-11-20T23:24:22;4.20;99.90
16907;DHT22;8570;52.380;4.654;2022-11-20T23:29:28;4.20;99.90
16907;DHT22;8570;52.380;4.654;2022-11-20T23:34:30;4.20;99.90
16907;DHT22;8570;52.380;4.654;2022-11-20T23:39:32;4.10;99.90
16907;DHT22;8570;52.380;4.654;2022-11-20T23:44:35;4.20;99.90
16907;DHT22;8570;52.380;4.654;2022-11-20T23:49:37;4.20;99.90
16907;DHT22;8570;52.380;4.654;2022-11-20T23:54:39;4.10;99.90
16907;DHT22;8570;52.380;4.654;2022-11-20T23:59:42;4.20;99.90
